Time;durP1;ratioP1;P1;durP2;ratioP2;P2;SDS_P1;SDS_P2;PMS_P1;PMS_P2;Temp;Humidity;BMP_temperature;BMP_pressure;BME280_temperature;BME280_humidity;BME280_pressure;Samples;Min_cycle;Max_cycle;Signal;HPM_P1;HPM_P2
2023/09/30 00:02:25;;;;;;;5.07;4.20;;;17.40;99.90;;;;;;4955014;28;20573;-86
2023/09/30 00:05:08;;;;;;;7.80;3.43;;;17.30;99.90;;;;;;4945811;28;20864;-88
2023/09/30 00:07:46;;;;;;;11.03;3.77;;;17.30;99.90;;;;;;4950132;28;20476;-85
2023/09/30 00:10:22;;;;;;;6.70;3.33;;;17.30;99.90;;;;;;4952426;28;20504;-84
2023/09/30 00:12:53;;;;;;;10.93;5.77;;;17.20;99.90;;;;;;4948898;28;20495;-85
2023/09/30 00:15:25;;;;;;;6.43;3.97;;;17.20;99.90;;;;;;4951774;28;20586;-84
2023/09/30 00:17:57;;;;;;;8.03;4.07;;;17.20;99.90;;;;;;4950930;28;20857;-85
2023/09/30 00:20:33;;;;;;;10.00;3.27;;;17.20;99.90;;;;;;4962807;28;20468;-85
2023/09/30 00:23:14;;;;;;;11.10;3.73;;;17.40;99.90;;;;;;4950582;28;20458;-87
2023/09/30 00:26:00;;;;;;;11.37;4.80;;;17.20;99.90;;;;;;4945599;28;20830;-84
2023/09/30 00:28:38;;;;;;;7.67;4.70;;;17.10;99.90;;;;;;4954876;28;20474;-86
2023/09/30 00:31:22;;;;;;;9.53;4.17;;;17.10;99.90;;;;;;4949959;28;20461;-85
2023/09/30 00:34:09;;;;;;;8.60;3.73;;;17.00;99.90;;;;;;4948912;28;20515;-86
2023/09/30 00:36:56;;;;;;;5.80;4.10;;;17.20;99.90;;;;;;4952353;28;20578;-84
2023/09/30 00:39:39;;;;;;;6.73;3.60;;;17.40;99.90;;;;;;4934521;28;20603;-86
2023/09/30 00:42:20;;;;;;;7.33;4.00;;;17.30;99.90;;;;;;4953268;28;20530;-83
2023/09/30 00:44:54;;;;;;;7.70;3.83;;;17.30;99.90;;;;;;4957119;28;20444;-85
2023/09/30 00:47:33;;;;;;;6.70;3.80;;;17.20;99.90;;;;;;4953147;28;20471;-84
2023/09/30 00:50:36;;;;;;;7.07;3.83;;;17.20;99.90;;;;;;4968706;28;20461;-85
2023/09/30 00:53:10;;;;;;;6.37;3.80;;;17.00;99.90;;;;;;4955424;28;20703;-87
2023/09/30 00:56:06;;;;;;;5.03;3.37;;;16.90;99.90;;;;;;4959545;28;20558;-86
2023/09/30 00:58:56;;;;;;;9.23;4.60;;;16.80;99.90;;;;;;4954877;28;20465;-87
2023/09/30 01:01:23;;;;;;;5.37;3.63;;;16.80;99.90;;;;;;4957745;28;20457;-86
2023/09/30 01:04:04;;;;;;;12.30;3.97;;;16.60;99.90;;;;;;4961696;28;20830;-86
2023/09/30 01:06:38;;;;;;;8.17;4.60;;;16.60;99.90;;;;;;4958882;28;20500;-86
2023/09/30 01:09:12;;;;;;;7.70;4.70;;;16.70;99.90;;;;;;4951833;28;20456;-87
2023/09/30 01:11:46;;;;;;;7.50;4.50;;;16.70;99.90;;;;;;4941452;28;22945;-86
2023/09/30 01:14:42;;;;;;;11.37;4.27;;;17.10;99.90;;;;;;4953239;28;20472;-88
2023/09/30 01:17:16;;;;;;;6.20;4.33;;;16.90;99.90;;;;;;4969912;28;20789;-86
2023/09/30 01:19:54;;;;;;;4.93;3.13;;;16.70;99.90;;;;;;4976928;28;20516;-87
2023/09/30 01:22:24;;;;;;;8.40;3.73;;;16.60;99.90;;;;;;4976046;28;20523;-85
2023/09/30 01:24:58;;;;;;;7.17;3.80;;;16.50;99.90;;;;;;4962805;28;20483;-84
2023/09/30 01:27:34;;;;;;;8.00;3.30;;;16.70;99.90;;;;;;4944875;28;20555;-85
2023/09/30 01:30:10;;;;;;;9.73;4.37;;;17.00;99.90;;;;;;4950454;28;20931;-85
2023/09/30 01:32:40;;;;;;;7.83;3.90;;;17.00;99.90;;;;;;4948734;28;20487;-83
2023/09/30 01:35:11;;;;;;;7.70;3.20;;;16.90;99.90;;;;;;4956412;28;20581;-87
2023/09/30 01:37:51;;;;;;;4.70;2.80;;;16.80;99.90;;;;;;4953692;28;20495;-85
2023/09/30 01:40:30;;;;;;;5.97;3.50;;;16.60;99.90;;;;;;4960806;28;20464;-88
2023/09/30 01:42:57;;;;;;;4.03;3.10;;;16.50;99.90;;;;;;4965853;28;20456;-86
2023/09/30 01:45:37;;;;;;;5.93;2.90;;;16.40;99.90;;;;;;4962013;28;20479;-85
2023/09/30 01:48:15;;;;;;;7.30;3.43;;;16.30;99.90;;;;;;4957716;28;20464;-84
2023/09/30 01:50:55;;;;;;;7.03;3.10;;;16.30;99.90;;;;;;4955577;28;20461;-85
2023/09/30 01:53:25;;;;;;;4.70;3.37;;;16.90;99.90;;;;;;4963888;28;20477;-85
2023/09/30 01:56:03;;;;;;;6.17;2.80;;;16.70;99.90;;;;;;4975501;28;20582;-84
2023/09/30 01:58:34;;;;;;;6.83;3.17;;;16.70;99.90;;;;;;4967382;28;20543;-84
2023/09/30 02:01:11;;;;;;;7.60;3.83;;;16.70;99.90;;;;;;4969289;28;20491;-85
2023/09/30 02:03:53;;;;;;;6.63;3.67;;;16.40;99.90;;;;;;4963666;28;20457;-85
2023/09/30 02:06:30;;;;;;;6.60;3.60;;;16.30;99.90;;;;;;4957221;28;20490;-86
2023/09/30 02:09:08;;;;;;;5.70;3.37;;;16.20;99.90;;;;;;4948228;28;21014;-84
2023/09/30 02:11:44;;;;;;;7.60;3.17;;;16.20;99.90;;;;;;4946362;28;20447;-84
2023/09/30 02:14:13;;;;;;;10.53;4.90;;;16.20;99.90;;;;;;4944532;28;20535;-86
2023/09/30 02:16:46;;;;;;;4.80;2.93;;;16.20;99.90;;;;;;4943956;28;20540;-85
2023/09/30 02:19:21;;;;;;;11.43;4.80;;;16.20;99.90;;;;;;4944596;28;20524;-85
2023/09/30 02:21:51;;;;;;;6.70;4.00;;;16.50;99.90;;;;;;4945249;28;20456;-82
2023/09/30 02:24:25;;;;;;;5.30;3.37;;;16.40;99.90;;;;;;4945489;28;20816;-84
2023/09/30 02:27:00;;;;;;;5.73;2.90;;;16.30;99.90;;;;;;4949026;28;20493;-83
2023/09/30 02:29:27;;;;;;;8.97;3.93;;;16.30;99.90;;;;;;4943124;28;20465;-84
2023/09/30 02:31:55;;;;;;;8.40;3.90;;;16.30;99.90;;;;;;4961022;28;20445;-87
2023/09/30 02:34:22;;;;;;;8.60;3.43;;;16.20;99.90;;;;;;4971814;28;20484;-86
2023/09/30 02:37:00;;;;;;;5.43;3.87;;;16.40;99.90;;;;;;4970248;28;20551;-86
2023/09/30 02:39:37;;;;;;;9.00;3.63;;;16.30;99.90;;;;;;4970534;28;20463;-86
2023/09/30 02:42:10;;;;;;;11.53;3.80;;;16.40;99.90;;;;;;4971716;28;20440;-85
2023/09/30 02:44:54;;;;;;;7.63;3.43;;;16.40;99.90;;;;;;4955325;28;21972;-85
2023/09/30 02:47:25;;;;;;;10.93;4.27;;;16.50;99.90;;;;;;4952521;28;20480;-85
2023/09/30 02:50:04;;;;;;;8.13;3.77;;;16.30;99.90;;;;;;4950869;28;21700;-87
2023/09/30 02:52:44;;;;;;;7.70;3.97;;;16.60;99.90;;;;;;4948039;28;20456;-85
2023/09/30 02:55:25;;;;;;;5.23;3.67;;;16.60;99.90;;;;;;4965213;28;20453;-86
2023/09/30 02:58:00;;;;;;;10.83;4.43;;;16.80;99.90;;;;;;4946890;28;20644;-85
2023/09/30 03:00:32;;;;;;;7.67;4.13;;;16.40;99.90;;;;;;4941178;28;20453;-87
2023/09/30 03:03:10;;;;;;;8.17;4.43;;;16.20;99.90;;;;;;4939900;28;20488;-86
2023/09/30 03:05:56;;;;;;;5.90;4.00;;;16.10;99.90;;;;;;4942489;28;20480;-87
2023/09/30 03:08:45;;;;;;;;;;;;;;;;;;;;;
2023/09/30 03:11:24;;;;;;;6.30;4.03;;;15.90;99.90;;;;;;4944559;28;20471;-86
2023/09/30 03:14:00;;;;;;;7.03;4.40;;;16.00;99.90;;;;;;4942601;28;20485;-85
2023/09/30 03:16:49;;;;;;;9.83;4.50;;;16.20;99.90;;;;;;4943454;28;20493;-85
2023/09/30 03:19:37;;;;;;;10.20;5.57;;;16.20;99.90;;;;;;4943206;28;20457;-85
2023/09/30 03:22:23;;;;;;;6.80;4.20;;;16.10;99.90;;;;;;4941175;28;20445;-86
2023/09/30 03:25:17;;;;;;;7.20;3.90;;;16.20;99.90;;;;;;4944784;28;20470;-86
2023/09/30 03:27:50;;;;;;;8.93;4.70;;;16.20;99.90;;;;;;4943516;28;20591;-85
2023/09/30 03:30:31;;;;;;;5.53;4.63;;;16.30;99.90;;;;;;4943116;28;20543;-87
2023/09/30 03:33:04;;;;;;;8.33;4.37;;;16.40;99.90;;;;;;4947237;28;20456;-87
2023/09/30 03:35:42;;;;;;;8.30;5.37;;;16.30;99.90;;;;;;4954966;28;21173;-87
2023/09/30 03:38:12;;;;;;;5.93;3.70;;;16.20;99.90;;;;;;4948248;28;20651;-86
2023/09/30 03:40:47;;;;;;;8.50;4.20;;;16.10;99.90;;;;;;4945181;28;20461;-88
2023/09/30 03:43:22;;;;;;;6.33;4.37;;;16.00;99.90;;;;;;4943869;28;21032;-86
2023/09/30 03:45:53;;;;;;;9.87;5.73;;;15.80;99.90;;;;;;4941366;28;20559;-86
2023/09/30 03:48:26;;;;;;;6.03;4.40;;;16.00;99.90;;;;;;4941114;28;20877;-86
2023/09/30 03:51:14;;;;;;;5.03;3.30;;;16.10;99.90;;;;;;4951134;28;20552;-86
2023/09/30 03:53:49;;;;;;;5.50;4.43;;;16.00;99.90;;;;;;4939222;28;20497;-87
2023/09/30 03:56:27;;;;;;;4.60;4.03;;;15.90;99.90;;;;;;4944559;28;20576;-88
2023/09/30 03:59:06;;;;;;;7.30;4.27;;;15.80;99.90;;;;;;4954899;28;20538;-87
2023/09/30 04:01:57;;;;;;;8.60;4.03;;;15.80;99.90;;;;;;4954529;28;20818;-86
2023/09/30 04:04:29;;;;;;;10.83;6.30;;;15.90;99.90;;;;;;4952699;28;20476;-87
2023/09/30 04:07:05;;;;;;;10.73;5.60;;;15.90;99.90;;;;;;4954492;28;21089;-86
2023/09/30 04:09:54;;;;;;;6.07;4.20;;;15.80;99.90;;;;;;4961107;28;20454;-87
2023/09/30 04:12:23;;;;;;;7.57;4.70;;;15.70;99.90;;;;;;4949129;28;20475;-85
2023/09/30 04:15:03;;;;;;;9.07;5.03;;;15.80;99.90;;;;;;4944023;28;20964;-88
2023/09/30 04:17:38;;;;;;;8.17;4.53;;;15.90;99.90;;;;;;4945587;28;20472;-87
2023/09/30 04:20:10;;;;;;;8.00;4.90;;;15.80;99.90;;;;;;4945785;28;20475;-87
2023/09/30 04:22:38;;;;;;;7.67;5.00;;;15.70;99.90;;;;;;4943098;28;20461;-85
2023/09/30 04:25:12;;;;;;;11.00;4.90;;;15.60;99.90;;;;;;4946933;28;20515;-87
2023/09/30 04:27:50;;;;;;;9.50;5.93;;;15.60;99.90;;;;;;4944749;28;20483;-85
2023/09/30 04:30:35;;;;;;;9.20;5.03;;;15.70;99.90;;;;;;4945851;28;20445;-85
2023/09/30 04:33:11;;;;;;;9.40;4.87;;;15.70;99.90;;;;;;4964371;28;20484;-86
2023/09/30 04:35:55;;;;;;;6.83;4.67;;;15.60;99.90;;;;;;4969832;28;21146;-88
2023/09/30 04:38:25;;;;;;;10.90;6.73;;;15.70;99.90;;;;;;4965198;28;20576;-86
2023/09/30 04:40:58;;;;;;;6.43;5.17;;;15.90;99.90;;;;;;4979972;28;20488;-86
2023/09/30 04:43:29;;;;;;;7.33;5.80;;;15.70;99.90;;;;;;4970938;28;20456;-86
2023/09/30 04:46:04;;;;;;;8.67;4.60;;;15.60;99.90;;;;;;4962619;28;20484;-88
2023/09/30 04:48:34;;;;;;;6.93;4.73;;;15.60;99.90;;;;;;4959780;28;20456;-87
2023/09/30 04:51:18;;;;;;;6.30;4.20;;;15.90;99.90;;;;;;4963645;28;20501;-86
2023/09/30 04:53:55;;;;;;;8.40;4.90;;;15.90;99.90;;;;;;4948154;28;20476;-84
2023/09/30 04:56:38;;;;;;;6.40;4.10;;;15.60;99.90;;;;;;4946088;28;20481;-88
2023/09/30 04:59:09;;;;;;;8.77;4.33;;;15.80;99.90;;;;;;4947937;28;20555;-84
2023/09/30 05:01:40;;;;;;;8.40;4.40;;;15.70;99.90;;;;;;4946793;28;20479;-86
2023/09/30 05:04:20;;;;;;;5.93;4.10;;;15.80;99.90;;;;;;4951997;28;20467;-87
2023/09/30 05:07:16;;;;;;;5.67;4.17;;;15.70;99.90;;;;;;4952484;28;20492;-87
2023/09/30 05:10:05;;;;;;;6.40;4.47;;;15.60;99.90;;;;;;4950207;28;20592;-85
2023/09/30 05:12:37;;;;;;;7.80;4.57;;;15.60;99.90;;;;;;4948735;28;20479;-85
2023/09/30 05:15:19;;;;;;;6.97;4.63;;;15.70;99.90;;;;;;4928632;28;20610;-85
2023/09/30 05:17:51;;;;;;;8.70;5.23;;;15.70;99.90;;;;;;4946480;28;20516;-86
2023/09/30 05:20:29;;;;;;;5.17;4.43;;;15.70;99.90;;;;;;4952454;28;20469;-87
2023/09/30 05:22:59;;;;;;;8.47;4.70;;;15.70;99.90;;;;;;4946460;28;20449;-85
2023/09/30 05:26:02;;;;;;;5.47;3.90;;;15.50;99.90;;;;;;4949728;28;20460;-87
2023/09/30 05:28:29;;;;;;;9.43;4.73;;;15.50;99.90;;;;;;4954441;28;20471;-86
2023/09/30 05:31:07;;;;;;;7.17;4.80;;;15.50;99.90;;;;;;4946342;28;20456;-87
2023/09/30 05:34:01;;;;;;;7.93;5.20;;;15.50;99.90;;;;;;4945482;28;20500;-85
2023/09/30 05:37:03;;;;;;;7.30;4.17;;;15.50;99.90;;;;;;4934926;28;20473;-85
2023/09/30 05:39:38;;;;;;;8.70;5.03;;;15.30;99.90;;;;;;4948060;28;20601;-85
2023/09/30 05:42:24;;;;;;;5.00;4.60;;;15.20;99.90;;;;;;4943726;28;22020;-85
2023/09/30 05:45:04;;;;;;;9.97;4.90;;;15.30;99.90;;;;;;4945033;28;20548;-84
2023/09/30 05:47:34;;;;;;;10.50;4.80;;;15.30;99.90;;;;;;4945024;28;20519;-87
2023/09/30 05:50:38;;;;;;;5.53;4.20;;;15.20;99.90;;;;;;4936386;28;20468;-86
2023/09/30 05:53:16;;;;;;;9.33;5.10;;;15.20;99.90;;;;;;4942219;28;20457;-84
2023/09/30 05:55:45;;;;;;;7.60;4.80;;;15.20;99.90;;;;;;4949755;28;21010;-86
2023/09/30 05:58:18;;;;;;;8.60;4.50;;;15.10;99.90;;;;;;4955522;28;20496;-88
2023/09/30 06:00:53;;;;;;;9.93;4.50;;;15.20;99.90;;;;;;4945632;28;20463;-85
2023/09/30 06:03:30;;;;;;;6.90;5.33;;;15.10;99.90;;;;;;4949068;28;20472;-85
2023/09/30 06:06:00;;;;;;;8.10;5.37;;;15.10;99.90;;;;;;4944442;28;20481;-86
2023/09/30 06:08:45;;;;;;;9.00;4.80;;;15.10;99.90;;;;;;4945324;28;20470;-86
2023/09/30 06:11:35;;;;;;;7.73;5.60;;;15.20;99.90;;;;;;4957576;28;20454;-86
2023/09/30 06:14:06;;;;;;;9.30;5.53;;;15.10;99.90;;;;;;4958781;28;20485;-85
2023/09/30 06:16:41;;;;;;;10.10;5.43;;;15.20;99.90;;;;;;4972514;28;20523;-88
2023/09/30 06:19:10;;;;;;;10.50;5.90;;;15.20;99.90;;;;;;4971099;28;20477;-87
2023/09/30 06:21:42;;;;;;;14.13;6.23;;;15.10;99.90;;;;;;4971405;28;20567;-86
2023/09/30 06:24:22;;;;;;;11.53;6.10;;;15.20;99.90;;;;;;4973745;28;20456;-86
2023/09/30 06:26:59;;;;;;;8.30;6.30;;;15.10;99.90;;;;;;4969697;28;20465;-86
2023/09/30 06:29:38;;;;;;;12.80;6.30;;;15.20;99.90;;;;;;4970425;28;20437;-87
2023/09/30 06:32:15;;;;;;;11.57;6.90;;;15.10;99.90;;;;;;4972061;28;20510;-84
2023/09/30 06:34:42;;;;;;;11.70;6.40;;;15.00;99.90;;;;;;4970278;28;20547;-85
2023/09/30 06:37:13;;;;;;;15.90;7.10;;;14.80;99.90;;;;;;4960602;28;20485;-85
2023/09/30 06:39:48;;;;;;;11.37;6.30;;;14.70;99.90;;;;;;4964221;28;20456;-85
2023/09/30 06:42:26;;;;;;;10.70;7.37;;;14.70;99.90;;;;;;4954088;28;20552;-85
2023/09/30 06:44:55;;;;;;;14.60;7.80;;;14.80;99.90;;;;;;4951931;28;20457;-84
2023/09/30 06:47:33;;;;;;;13.87;7.73;;;14.80;99.90;;;;;;4951496;28;20482;-85
2023/09/30 06:50:16;;;;;;;13.80;7.73;;;14.80;99.90;;;;;;4947869;28;20464;-85
2023/09/30 06:52:50;;;;;;;12.10;7.50;;;14.80;99.90;;;;;;4947595;28;20464;-86
2023/09/30 06:55:27;;;;;;;11.50;8.60;;;14.80;99.90;;;;;;4963370;28;20966;-85
2023/09/30 06:58:01;;;;;;;13.27;7.53;;;14.90;99.90;;;;;;4956424;28;20615;-87
2023/09/30 07:00:59;;;;;;;13.20;7.77;;;15.20;99.90;;;;;;4954662;28;20520;-86
2023/09/30 07:03:35;;;;;;;9.70;6.80;;;15.00;99.90;;;;;;4955771;28;20589;-86
2023/09/30 07:06:07;;;;;;;11.33;7.90;;;15.20;99.90;;;;;;4952130;28;20547;-86
2023/09/30 07:08:59;;;;;;;14.33;7.80;;;15.10;99.90;;;;;;4959843;28;20463;-88
2023/09/30 07:11:35;;;;;;;11.23;8.33;;;15.20;99.90;;;;;;4971994;28;20477;-88
2023/09/30 07:14:11;;;;;;;12.90;7.97;;;15.30;99.90;;;;;;4980983;28;20476;-86
2023/09/30 07:17:09;;;;;;;14.60;9.20;;;15.40;99.90;;;;;;4981752;28;20570;-87
2023/09/30 07:19:56;;;;;;;13.10;8.77;;;15.50;99.90;;;;;;4976843;28;20469;-85
2023/09/30 07:22:26;;;;;;;13.37;9.73;;;15.20;99.90;;;;;;4967090;28;20453;-86
2023/09/30 07:25:17;;;;;;;12.93;9.20;;;15.70;99.90;;;;;;4965686;28;20539;-86
2023/09/30 07:27:52;;;;;;;12.67;8.70;;;15.40;99.90;;;;;;4969310;28;20541;-87
2023/09/30 07:30:29;;;;;;;11.07;8.90;;;15.20;99.90;;;;;;4978501;28;20472;-87
2023/09/30 07:33:04;;;;;;;11.63;7.70;;;15.30;99.90;;;;;;4959213;28;20977;-87
2023/09/30 07:35:55;;;;;;;12.67;8.53;;;15.40;99.90;;;;;;4954259;28;20477;-85
2023/09/30 07:38:40;;;;;;;11.30;8.20;;;15.20;99.90;;;;;;4950600;28;20483;-86
2023/09/30 07:41:15;;;;;;;9.07;7.80;;;15.10;99.90;;;;;;4947754;28;20461;-87
2023/09/30 07:43:52;;;;;;;11.97;8.60;;;15.40;99.90;;;;;;4952931;28;20803;-85
2023/09/30 07:46:52;;;;;;;11.30;8.00;;;15.60;99.90;;;;;;4953744;28;20488;-84
2023/09/30 07:49:40;;;;;;;10.80;7.97;;;15.80;99.90;;;;;;4950479;28;20469;-86
2023/09/30 07:52:15;;;;;;;11.07;8.47;;;15.60;99.90;;;;;;4952255;28;20457;-85
2023/09/30 07:55:12;;;;;;;9.47;7.43;;;15.70;99.90;;;;;;4949642;28;20560;-85
2023/09/30 07:57:53;;;;;;;13.00;9.27;;;16.00;99.90;;;;;;4949530;28;20817;-85
2023/09/30 08:00:36;;;;;;;9.37;8.00;;;16.00;99.90;;;;;;4950968;28;21141;-86
2023/09/30 08:03:39;;;;;;;13.60;8.90;;;15.90;99.90;;;;;;4947738;28;20456;-85
2023/09/30 08:06:33;;;;;;;9.20;8.30;;;15.80;99.90;;;;;;4948372;28;20758;-84
2023/09/30 08:09:15;;;;;;;12.33;8.80;;;15.60;99.90;;;;;;4947902;28;20481;-84
2023/09/30 08:11:58;;;;;;;9.70;8.70;;;15.50;99.90;;;;;;4939836;28;20988;-85
2023/09/30 08:14:54;;;;;;;10.33;8.13;;;15.60;99.90;;;;;;4946349;28;20733;-87
2023/09/30 08:17:29;;;;;;;10.80;8.60;;;15.50;99.90;;;;;;4947527;28;21811;-86
2023/09/30 08:20:24;;;;;;;11.23;8.50;;;16.00;99.90;;;;;;4958681;28;20676;-87
2023/09/30 08:23:00;;;;;;;13.53;10.07;;;15.70;99.90;;;;;;4949883;28;20482;-87
2023/09/30 08:25:50;;;;;;;13.20;9.17;;;15.80;99.90;;;;;;4950727;28;20449;-85
2023/09/30 08:29:00;;;;;;;12.10;10.10;;;16.20;99.90;;;;;;4894609;29;20584;-87
2023/09/30 08:31:56;;;;;;;12.33;9.13;;;16.60;99.90;;;;;;4908249;29;20455;-86
2023/09/30 08:34:28;;;;;;;11.67;9.30;;;16.80;99.90;;;;;;4908253;29;20518;-86
2023/09/30 08:37:25;;;;;;;9.70;8.63;;;16.60;99.90;;;;;;4910949;29;20573;-86
2023/09/30 08:40:14;;;;;;;16.57;10.07;;;16.60;99.90;;;;;;4903457;29;20460;-85
2023/09/30 08:43:05;;;;;;;11.83;10.00;;;17.20;99.90;;;;;;4925261;29;20462;-86
2023/09/30 08:46:19;;;;;;;14.00;8.87;;;17.00;99.90;;;;;;4899369;29;20494;-86
2023/09/30 08:53:06;;;;;;;11.50;8.97;;;16.70;99.90;;;;;;4901754;29;20500;-86
2023/09/30 08:56:25;;;;;;;10.37;8.90;;;16.80;99.90;;;;;;4901493;29;20620;-86
2023/09/30 08:59:34;;;;;;;13.30;8.70;;;16.90;99.90;;;;;;4937918;28;20481;-85
2023/09/30 09:02:33;;;;;;;15.83;10.50;;;17.00;99.90;;;;;;4940587;28;20455;-84
2023/09/30 09:05:20;;;;;;;13.87;9.17;;;16.80;99.90;;;;;;4948837;28;20461;-86
2023/09/30 09:08:28;;;;;;;15.80;10.30;;;16.80;99.90;;;;;;4928862;28;20460;-85
2023/09/30 09:11:14;;;;;;;16.03;11.90;;;17.20;99.90;;;;;;4945309;28;20443;-86
2023/09/30 09:14:40;;;;;;;15.97;11.80;;;17.00;99.90;;;;;;4949449;28;20569;-86
2023/09/30 09:20:09;;;;;;;13.90;11.63;;;16.90;99.90;;;;;;4948503;28;20449;-85
2023/09/30 09:25:58;;;;;;;18.80;12.43;;;17.00;99.90;;;;;;4956530;28;20471;-87
2023/09/30 09:28:52;;;;;;;18.50;13.40;;;17.20;99.90;;;;;;4962413;28;20603;-89
2023/09/30 09:31:46;;;;;;;18.63;12.80;;;17.40;99.90;;;;;;4966147;28;20597;-85
2023/09/30 09:34:33;;;;;;;15.97;12.27;;;17.50;99.90;;;;;;4958043;28;20566;-85
2023/09/30 09:37:35;;;;;;;17.67;11.33;;;17.50;99.90;;;;;;4975351;28;20489;-86
2023/09/30 09:40:13;;;;;;;14.50;9.80;;;18.90;99.90;;;;;;4976349;28;20460;-86
2023/09/30 09:42:41;;;;;;;11.33;9.77;;;19.70;99.40;;;;;;4975202;28;20464;-87
2023/09/30 09:45:27;;;;;;;12.20;8.83;;;21.80;95.70;;;;;;4976698;28;20537;-86
2023/09/30 09:48:04;;;;;;;12.23;9.23;;;22.60;92.60;;;;;;4963816;28;20473;-85
2023/09/30 09:50:46;;;;;;;15.10;10.23;;;22.90;91.50;;;;;;4962092;28;20458;-86
2023/09/30 09:53:30;;;;;;;12.10;9.83;;;23.10;91.40;;;;;;4968755;28;20462;-85
2023/09/30 09:56:20;;;;;;;11.77;9.00;;;23.40;90.20;;;;;;4963196;28;20524;-86
2023/09/30 09:58:55;;;;;;;15.73;10.20;;;23.60;88.80;;;;;;4962357;28;20457;-86
2023/09/30 10:01:28;;;;;;;12.03;8.60;;;23.20;89.70;;;;;;4960238;28;20477;-84
2023/09/30 10:04:08;;;;;;;10.53;8.50;;;23.20;90.30;;;;;;4955871;28;20471;-84
2023/09/30 10:07:13;;;;;;;8.50;7.60;;;23.60;89.50;;;;;;4946044;28;20489;-85
2023/09/30 10:09:51;;;;;;;9.50;8.30;;;24.30;86.60;;;;;;4942352;28;20452;-84
2023/09/30 10:13:27;;;;;;;10.87;8.80;;;25.00;82.70;;;;;;4960175;28;20493;-85
2023/09/30 10:16:22;;;;;;;8.93;7.63;;;24.40;81.30;;;;;;4975311;28;20489;-89
2023/09/30 10:19:20;;;;;;;9.43;8.10;;;24.40;82.70;;;;;;4973968;28;20516;-86
2023/09/30 10:22:18;;;;;;;12.70;9.23;;;23.60;83.80;;;;;;4954223;28;20467;-85
2023/09/30 10:25:24;;;;;;;10.87;9.37;;;22.50;89.30;;;;;;4954275;28;20492;-85
2023/09/30 10:28:41;;;;;;;8.83;7.93;;;21.70;91.40;;;;;;5399901;23;20500;-84
2023/09/30 10:39:37;;;;;;;8.80;6.60;;;20.60;94.20;;;;;;4091581;26;20466;-84
2023/09/30 10:45:46;;;;;;;8.57;6.90;;;20.40;93.90;;;;;;5402273;23;20510;-83
2023/09/30 10:48:33;;;;;;;10.03;7.30;;;20.40;93.40;;;;;;4926194;29;20454;-83
2023/09/30 10:51:22;;;;;;;8.57;6.60;;;20.60;93.30;;;;;;4928994;29;20451;-83
2023/09/30 10:53:52;;;;;;;9.77;6.33;;;20.60;93.30;;;;;;4921885;29;21664;-84
2023/09/30 10:56:20;;;;;;;5.97;4.70;;;20.50;93.20;;;;;;4927124;28;20481;-83
2023/09/30 10:58:50;;;;;;;7.83;5.30;;;20.60;91.70;;;;;;4926065;29;20957;-85
2023/09/30 11:01:23;;;;;;;11.77;6.47;;;20.50;91.90;;;;;;4916405;29;20472;-85
2023/09/30 11:04:03;;;;;;;6.80;5.60;;;20.40;92.20;;;;;;4926553;29;20465;-85
2023/09/30 11:06:31;;;;;;;6.57;5.43;;;20.10;92.80;;;;;;4926816;29;20483;-85
2023/09/30 11:09:00;;;;;;;10.00;6.80;;;19.90;93.10;;;;;;4929584;29;20481;-83
2023/09/30 11:11:39;;;;;;;10.20;7.00;;;19.80;93.40;;;;;;4937259;28;20466;-84
2023/09/30 11:14:30;;;;;;;12.10;6.13;;;19.90;93.30;;;;;;4928683;29;20596;-82
2023/09/30 11:17:03;;;;;;;7.50;5.80;;;20.20;92.80;;;;;;4929659;29;20586;-83
2023/09/30 11:19:39;;;;;;;7.10;6.17;;;20.70;92.10;;;;;;4931035;29;20458;-85
2023/09/30 11:22:07;;;;;;;6.97;5.90;;;21.00;91.90;;;;;;4920814;29;20464;-85
2023/09/30 11:24:38;;;;;;;6.07;5.43;;;21.60;90.40;;;;;;4928113;29;20458;-85
2023/09/30 11:27:06;;;;;;;5.80;4.83;;;21.90;89.90;;;;;;4929239;29;20492;-82
2023/09/30 11:29:34;;;;;;;6.97;5.70;;;22.20;87.50;;;;;;4928928;29;20580;-86
2023/09/30 11:32:02;;;;;;;6.23;4.90;;;21.80;87.40;;;;;;4925574;29;20494;-84
2023/09/30 11:34:36;;;;;;;7.10;5.13;;;21.50;88.10;;;;;;4936423;29;20528;-85
2023/09/30 11:37:03;;;;;;;7.60;5.97;;;21.40;89.00;;;;;;4931121;28;20601;-85
2023/09/30 11:39:31;;;;;;;7.03;5.07;;;21.30;88.60;;;;;;4942288;28;20464;-85
2023/09/30 11:42:00;;;;;;;6.77;5.40;;;21.20;88.70;;;;;;4956972;28;20446;-85
2023/09/30 11:44:31;;;;;;;5.10;3.90;;;20.80;90.00;;;;;;4930695;29;20834;-85
2023/09/30 11:47:04;;;;;;;7.23;4.60;;;20.70;88.60;;;;;;4930621;29;20470;-84
2023/09/30 11:49:41;;;;;;;6.70;4.50;;;20.60;88.70;;;;;;4943223;29;20502;-86
2023/09/30 11:52:11;;;;;;;7.70;5.13;;;20.40;90.00;;;;;;4931290;29;20469;-86
2023/09/30 11:54:43;;;;;;;8.33;4.30;;;20.40;90.70;;;;;;4925493;29;20494;-83
2023/09/30 11:57:16;;;;;;;6.47;4.00;;;20.60;89.60;;;;;;4929513;29;21086;-84
2023/09/30 11:59:51;;;;;;;3.47;2.90;;;20.30;89.70;;;;;;4929332;28;20461;-86
2023/09/30 12:02:49;;;;;;;3.30;2.73;;;20.60;86.20;;;;;;4927048;29;20469;-86
2023/09/30 12:05:28;;;;;;;3.60;3.20;;;20.80;85.40;;;;;;4940997;29;21452;-84
2023/09/30 12:07:57;;;;;;;4.27;3.23;;;20.50;86.50;;;;;;4937163;28;20979;-85
2023/09/30 12:10:42;;;;;;;5.27;4.00;;;20.50;86.60;;;;;;4931915;29;20442;-85
2023/09/30 12:13:16;;;;;;;5.00;3.50;;;20.90;86.60;;;;;;4947078;28;20469;-84
2023/09/30 12:15:57;;;;;;;5.70;3.10;;;21.40;85.10;;;;;;4931118;29;21060;-85
2023/09/30 12:18:30;;;;;;;5.60;3.20;;;22.70;82.40;;;;;;4930888;29;20489;-85
2023/09/30 12:21:00;;;;;;;9.97;5.07;;;23.20;79.70;;;;;;4950304;28;20480;-84
2023/09/30 12:23:28;;;;;;;4.53;3.47;;;23.70;77.90;;;;;;4932056;29;20462;-84
2023/09/30 12:26:04;;;;;;;5.73;4.00;;;23.90;76.90;;;;;;4928183;29;20561;-86
2023/09/30 12:28:40;;;;;;;5.37;4.10;;;23.90;74.10;;;;;;4943363;28;20461;-82
2023/09/30 12:31:10;;;;;;;4.43;3.63;;;24.30;71.30;;;;;;4931808;29;20471;-86
2023/09/30 12:33:55;;;;;;;9.70;4.20;;;24.10;70.40;;;;;;4925454;29;20466;-85
2023/09/30 12:36:24;;;;;;;4.93;3.53;;;24.50;69.20;;;;;;4930642;28;20565;-86
2023/09/30 12:38:53;;;;;;;6.33;4.47;;;24.10;69.10;;;;;;4928354;29;20513;-86
2023/09/30 12:41:23;;;;;;;4.70;3.90;;;24.00;69.90;;;;;;4928177;29;20572;-85
2023/09/30 12:43:53;;;;;;;6.90;4.43;;;23.70;69.90;;;;;;4939767;28;20465;-88
2023/09/30 12:46:25;;;;;;;7.03;4.07;;;23.20;70.80;;;;;;4942977;28;20585;-87
2023/09/30 12:48:54;;;;;;;4.80;3.20;;;23.10;71.50;;;;;;4943419;28;20443;-88
2023/09/30 12:51:38;;;;;;;5.00;3.77;;;23.50;72.90;;;;;;4948602;28;20463;-86
2023/09/30 12:54:07;;;;;;;4.80;3.67;;;24.10;70.30;;;;;;4931711;29;20513;-85
2023/09/30 12:56:44;;;;;;;5.40;3.80;;;24.90;67.60;;;;;;4931814;29;20578;-85
2023/09/30 12:59:14;;;;;;;4.30;3.87;;;25.10;65.70;;;;;;4933423;28;20563;-86
2023/09/30 13:01:49;;;;;;;5.33;3.30;;;25.10;65.20;;;;;;4935538;29;20521;-82
2023/09/30 13:04:32;;;;;;;6.53;4.07;;;25.10;64.10;;;;;;4947497;29;20482;-85
2023/09/30 13:07:07;;;;;;;6.30;3.63;;;24.50;65.70;;;;;;4944179;28;20486;-85
2023/09/30 13:09:39;;;;;;;7.83;3.60;;;24.50;64.20;;;;;;4946769;29;20462;-85
2023/09/30 13:12:06;;;;;;;7.83;3.10;;;24.20;63.80;;;;;;4945103;29;20453;-85
2023/09/30 13:14:34;;;;;;;5.00;3.63;;;23.30;65.40;;;;;;4930103;29;20454;-85
2023/09/30 13:17:03;;;;;;;3.90;3.23;;;23.10;68.00;;;;;;4934029;29;20630;-85
2023/09/30 13:19:38;;;;;;;3.93;3.53;;;22.50;68.90;;;;;;4929417;29;20461;-84
2023/09/30 13:22:08;;;;;;;6.70;3.03;;;22.20;69.20;;;;;;4931803;28;20435;-86
2023/09/30 13:24:44;;;;;;;2.70;2.50;;;22.20;70.90;;;;;;4935609;29;21781;-84
2023/09/30 13:27:11;;;;;;;4.63;3.10;;;22.50;69.60;;;;;;4924640;29;20481;-86
2023/09/30 13:29:38;;;;;;;3.33;2.70;;;22.70;68.70;;;;;;4924972;29;20458;-85
2023/09/30 13:32:11;;;;;;;4.97;2.73;;;22.70;66.90;;;;;;4927845;29;20488;-86
2023/09/30 13:34:41;;;;;;;4.40;3.07;;;22.60;66.90;;;;;;4939266;29;20481;-85
2023/09/30 13:37:09;;;;;;;4.60;3.37;;;22.40;68.20;;;;;;4925860;29;20489;-84
2023/09/30 13:39:43;;;;;;;6.40;2.93;;;22.20;69.20;;;;;;4930556;29;20474;-85
2023/09/30 13:42:17;;;;;;;4.37;2.80;;;22.10;69.50;;;;;;4928708;29;20554;-89
2023/09/30 13:44:45;;;;;;;4.40;3.13;;;22.50;69.50;;;;;;4927842;29;20465;-85
2023/09/30 13:47:18;;;;;;;3.30;2.80;;;22.80;68.60;;;;;;4935623;29;20482;-85
2023/09/30 13:49:48;;;;;;;3.43;3.03;;;22.70;68.10;;;;;;4931501;29;20453;-85
2023/09/30 13:52:17;;;;;;;3.30;3.00;;;22.80;67.70;;;;;;4946027;29;20483;-86
2023/09/30 13:54:55;;;;;;;3.83;3.10;;;22.90;67.60;;;;;;4947423;28;20452;-86
2023/09/30 13:57:30;;;;;;;4.30;2.60;;;22.40;68.40;;;;;;4940588;29;21381;-87
2023/09/30 14:00:00;;;;;;;3.67;2.90;;;22.30;69.00;;;;;;4933420;29;20476;-86
2023/09/30 14:02:26;;;;;;;5.10;3.67;;;22.10;69.50;;;;;;4933761;29;20446;-85
2023/09/30 14:04:53;;;;;;;5.20;3.00;;;22.10;69.60;;;;;;4946016;28;20526;-85
2023/09/30 14:07:23;;;;;;;6.63;3.27;;;22.00;69.70;;;;;;4933429;29;20863;-85